Decatur, IL

2:08 PM CDT on May 29, 2017 (GMT -0500)
Decatur

Weather History for KDEC - January, 2014

Change the Weather History Date:

Sunday, January 5, 2014

  Actual Average Record
Temperature  
Mean Temperature 16 °F 28 °F  
Max Temperature 33 °F 36 °F 37 °F (2016)
Min Temperature -2 °F 20 °F 4 °F (2015)
Degree Days  
Heating Degree Days 49 37  
Month to date heating degree days 231 185  
Since 1 July heating degree days 2506 2324  
Cooling Degree Days 0 0  
Month to date cooling degree days 0 0  
Year to date cooling degree days 0 0  
Moisture  
Dew Point 16 °F    
Average Humidity 80    
Maximum Humidity 92    
Minimum Humidity 68    
Precipitation  
Precipitation 0.00 in 0.08 in 0.00 in (2017)
Month to date precipitation 0.00 0.39  
Year to date precipitation 0.00 0.39  
Sea Level Pressure  
Sea Level Pressure 29.95 in    
Wind  
Wind Speed 20 mph (NNW)    
Max Wind Speed 33 mph    
Max Gust Speed 44 mph    
Visibility 3 miles    
Events Fog , Rain , Snow    
T = Trace of Precipitation, MM = Missing Value Source: NWS Daily Summary

Daily Weather History Graph

Daily Weather History Graph

Search for Another Location

Airport or City:

Trip Planner

Search our weather history database for the weather conditions in past years. The results will help you decide how hot, cold, wet, or windy it might be!

Date:

Astronomy

Jan. 05, 2014 Rise Set
Actual Time 7:17 AM CST 4:45 PM CST
Civil Twilight 6:46 AM CST 5:15 PM CST
Nautical Twilight 6:13 AM CST 5:48 PM CST
Astronomical Twilight 5:40 AM CST 6:21 PM CST
Moon 9:59 AM CST (1/5) 10:12 PM CST (1/5)
Length of Visible Light 10h 28m
Length of Day
9h 28m
Waxing Crescent, 25% of the Moon is Illuminated
Jan 5
Waxing Crescent
Jan 7
First Quarter
Jan 15
Full
Jan 23
Last Quarter
Jan 30
New

Hourly Weather History & Observations

Time (CST) Temp. Windchill Dew Point Humidity Pressure Visibility Wind Dir Wind Speed Gust Speed Precip Events Conditions
12:23 AM 33.8 °F 27.0 °F 30.2 °F 87% 29.96 in 8.0 mi SSW 8.1 mph - N/A   Overcast
12:35 AM 33.8 °F 28.6 °F 30.2 °F 87% 29.96 in 8.0 mi SSW 5.8 mph - N/A   Overcast
12:54 AM 33.1 °F 26.9 °F 30.0 °F 89% 29.97 in 7.0 mi SSW 6.9 mph - N/A   Overcast
1:45 AM 33.8 °F 27.7 °F 30.2 °F 87% 29.96 in 7.0 mi SW 6.9 mph - N/A   Overcast
1:54 AM 33.1 °F 28.7 °F 30.9 °F 92% 29.98 in 7.0 mi SW 4.6 mph - 0.00 in   Overcast
2:37 AM 32.0 °F 25.6 °F 28.4 °F 87% 29.95 in 5.0 mi NW 6.9 mph - 0.00 in Rain Light Freezing Rain
2:51 AM 30.2 °F 24.3 °F 28.4 °F 93% 29.95 in 4.0 mi NW 5.8 mph - 0.00 in Snow Light Snow
2:54 AM 30.9 °F 25.2 °F 28.9 °F 92% 29.97 in 4.0 mi NW 5.8 mph - 0.00 in Snow Light Snow
3:07 AM 30.2 °F 24.3 °F 28.4 °F 93% 29.94 in 3.0 mi NW 5.8 mph - 0.00 in Snow Light Snow
3:36 AM 30.2 °F 26.7 °F 28.4 °F 93% 29.94 in 4.0 mi NW 3.5 mph - 0.00 in Rain Light Freezing Rain
3:54 AM 30.0 °F 26.5 °F 28.0 °F 92% 29.95 in 3.0 mi WNW 3.5 mph - 0.00 in Rain Light Freezing Rain
4:24 AM 30.2 °F 26.7 °F 28.4 °F 93% 29.93 in 4.0 mi NNW 3.5 mph - 0.00 in   Overcast
4:35 AM 30.2 °F 23.4 °F 28.4 °F 93% 29.93 in 6.0 mi North 6.9 mph - 0.00 in   Overcast
4:44 AM 30.2 °F 23.4 °F 28.4 °F 93% 29.92 in 6.0 mi North 6.9 mph - 0.00 in   Overcast
4:54 AM 30.9 °F 25.2 °F 28.9 °F 92% 29.94 in 6.0 mi North 5.8 mph - 0.00 in   Overcast
5:18 AM 30.2 °F 21.9 °F 28.4 °F 93% 29.90 in 6.0 mi NNE 9.2 mph - N/A   Overcast
5:44 AM 30.2 °F 20.8 °F 28.4 °F 93% 29.89 in 5.0 mi NNE 11.5 mph - 0.00 in Snow Light Snow
5:54 AM 30.9 °F 22.2 °F 28.0 °F 89% 29.91 in 5.0 mi NNE 10.4 mph - 0.00 in Snow Light Snow
6:06 AM 30.2 °F 19.8 °F 26.6 °F 86% 29.89 in 5.0 mi NNE 13.8 mph - 0.00 in Rain Light Freezing Rain
6:34 AM 30.2 °F 20.2 °F 26.6 °F 86% 29.89 in 4.0 mi NNE 12.7 mph - 0.00 in   Overcast
6:47 AM 30.2 °F 20.2 °F 28.4 °F 93% 29.90 in 4.0 mi NNE 12.7 mph - 0.00 in Rain Light Freezing Rain
6:54 AM 30.0 °F 20.5 °F 28.0 °F 92% 29.92 in 3.0 mi North 11.5 mph - 0.00 in Snow Light Snow
7:04 AM 30.2 °F 20.2 °F 28.4 °F 93% 29.90 in 2.5 mi North 12.7 mph - 0.00 in Snow Light Snow
7:20 AM 28.4 °F 18.0 °F 26.6 °F 93% 29.91 in 1.5 mi North 12.7 mph - 0.00 in Snow Light Snow
7:40 AM 28.4 °F 18.0 °F 24.8 °F 86% 29.91 in 0.5 mi North 12.7 mph - 0.00 in Fog , Snow Snow
7:54 AM 28.9 °F 16.5 °F 26.1 °F 89% 29.92 in 0.5 mi NNE 18.4 mph - 0.00 in Fog , Snow Snow
8:02 AM 28.4 °F 15.1 °F 26.6 °F 93% 29.90 in 0.2 mi NNE 20.7 mph 25.3 mph 0.00 in Fog , Snow Snow
8:13 AM 28.4 °F 15.4 °F 24.8 °F 86% 29.90 in 0.5 mi NNE 19.6 mph 26.5 mph 0.00 in Fog , Snow Snow
8:54 AM 26.1 °F 12.0 °F 21.9 °F 84% 29.92 in 0.5 mi NNE 20.7 mph 29.9 mph 0.00 in Fog , Snow Snow
9:10 AM 24.8 °F 9.6 °F 21.2 °F 86% 29.90 in 0.2 mi NNE 23.0 mph 28.8 mph 0.00 in Fog Light Freezing Fog
9:54 AM 23.0 °F 8.0 °F 19.9 °F 88% 29.92 in 0.2 mi North 20.7 mph 28.8 mph 0.00 in Fog Light Freezing Fog
10:02 AM 23.0 °F 9.2 °F 19.4 °F 86% 29.89 in 0.5 mi North 17.3 mph 28.8 mph N/A Fog Light Freezing Fog
10:23 AM 21.2 °F 5.2 °F 17.6 °F 86% 29.91 in 0.8 mi North 21.9 mph 28.8 mph N/A   Mist
10:32 AM 21.2 °F 5.6 °F 17.6 °F 86% 29.87 in 0.8 mi North 20.7 mph 27.6 mph N/A   Mist
10:41 AM 21.2 °F 4.5 °F 17.6 °F 86% 29.87 in 0.5 mi North 24.2 mph 33.4 mph N/A Fog Light Freezing Fog
10:54 AM 21.0 °F 6.2 °F 17.1 °F 85% 29.87 in 0.5 mi North 18.4 mph 31.1 mph N/A Fog Light Freezing Fog
11:01 AM 19.4 °F 2.5 °F 15.8 °F 86% 29.84 in 0.8 mi North 23.0 mph 31.1 mph N/A   Mist
11:54 AM 19.0 °F 1.6 °F 15.1 °F 85% 29.85 in 0.5 mi North 24.2 mph 32.2 mph 0.00 in Fog , Snow Snow
12:06 PM 17.6 °F -0.3 °F 14.0 °F 86% 29.82 in 0.2 mi North 24.2 mph 33.4 mph 0.00 in Fog , Snow Snow
12:41 PM 17.6 °F -2.2 °F 12.2 °F 79% 29.81 in 0.5 mi North 31.1 mph 35.7 mph 0.00 in Fog , Snow Snow
12:54 PM 17.1 °F -2.4 °F 12.9 °F 84% 29.85 in 0.5 mi North 28.8 mph 36.8 mph 0.00 in Fog , Snow Snow
1:01 PM 17.6 °F -2.8 °F 12.2 °F 79% 29.82 in 0.2 mi North 33.4 mph 41.4 mph 0.00 in Snow Snow
1:54 PM 16.0 °F -3.5 °F 12.9 °F 88% 29.83 in 0.2 mi North 27.6 mph 39.1 mph 0.00 in Snow Blowing Snow
2:26 PM 15.8 °F -1.9 °F 12.2 °F 86% 29.84 in 0.2 mi NNW 21.9 mph 34.5 mph N/A Snow Blowing Snow
2:54 PM 14.0 °F -7.4 °F 10.0 °F 84% 29.88 in 0.2 mi North 32.2 mph 36.8 mph N/A Snow Blowing Snow
3:54 PM 12.9 °F -7.6 °F 9.0 °F 84% 29.94 in 0.2 mi NNW 27.6 mph 36.8 mph N/A Snow Blowing Snow
4:07 PM 12.2 °F -7.5 °F 8.6 °F 85% 29.92 in 0.5 mi NNW 24.2 mph 33.4 mph N/A Snow Blowing Snow
4:14 PM 12.2 °F -8.9 °F 8.6 °F 85% 29.92 in 0.2 mi NNW 28.8 mph 35.7 mph N/A Snow Blowing Snow
4:47 PM 10.4 °F -12.0 °F 6.8 °F 85% 29.94 in 0.5 mi NNW 31.1 mph 39.1 mph N/A Snow Blowing Snow
4:54 PM 10.9 °F -9.6 °F 7.0 °F 84% 29.97 in 0.8 mi NNW 25.3 mph 41.4 mph N/A Snow Blowing Snow
5:49 PM 10.4 °F -11.4 °F 5.0 °F 79% 29.99 in 1.0 mi NNW 28.8 mph 41.4 mph N/A Snow Blowing Snow
5:54 PM 10.0 °F -12.2 °F 5.0 °F 80% 30.03 in 1.0 mi NNW 29.9 mph 39.1 mph N/A Snow Blowing Snow
6:12 PM 8.6 °F -10.5 °F 3.2 °F 79% 30.01 in 1.2 mi NW 19.6 mph 40.3 mph N/A Snow Blowing Snow
6:23 PM 8.6 °F -11.9 °F 3.2 °F 79% 30.02 in 1.2 mi NW 23.0 mph 34.5 mph N/A Snow Blowing Snow
6:54 PM 8.1 °F -13.4 °F 1.9 °F 76% 30.09 in 1.5 mi NW 25.3 mph 42.6 mph N/A Snow Blowing Snow
7:13 PM 8.6 °F -12.7 °F 3.2 °F 79% 30.07 in 2.0 mi NW 25.3 mph 34.5 mph N/A Snow Blowing Snow
7:26 PM 6.8 °F -17.6 °F -0.4 °F 72% 30.07 in 1.8 mi NW 33.4 mph 43.7 mph N/A Snow Blowing Snow
7:31 PM 8.6 °F -11.9 °F -0.4 °F 67% 30.08 in 2.0 mi NW 23.0 mph 43.7 mph N/A Snow Blowing Snow
7:54 PM 7.0 °F -13.6 °F -0.9 °F 70% 30.12 in 4.0 mi NW 21.9 mph 28.8 mph N/A Snow Blowing Snow
8:54 PM 3.9 °F -17.6 °F -5.1 °F 66% 30.16 in 4.0 mi NW 21.9 mph 34.5 mph N/A Snow Blowing Snow
9:54 PM 1.0 °F -22.8 °F -7.1 °F 69% 30.19 in 3.0 mi NW 25.3 mph 38.0 mph N/A Snow Blowing Snow
10:54 PM 1.0 °F -20.9 °F -8.0 °F 66% 30.22 in 4.0 mi NW 20.7 mph 34.5 mph N/A Snow Blowing Snow
11:03 PM -0.4 °F -22.8 °F -7.6 °F 72% 30.18 in 6.0 mi NW 20.7 mph 33.4 mph N/A Snow Blowing Snow
11:30 PM -0.4 °F -21.7 °F -9.4 °F 66% 30.19 in 4.0 mi NW 18.4 mph 33.4 mph N/A Snow Blowing Snow
11:54 PM -2.0 °F -27.3 °F -11.0 °F 66% 30.23 in 6.0 mi NW 26.5 mph 39.1 mph N/A Snow Blowing Snow